Time;durP1;ratioP1;P1;durP2;ratioP2;P2;SDS_P1;SDS_P2;PMS_P1;PMS_P2;Temp;Humidity;BMP_temperature;BMP_pressure;BME280_temperature;BME280_humidity;BME280_pressure;Samples;Min_cycle;Max_cycle;Signal;HPM_P1;HPM_P2
2020/12/13 00:00:20;;;;;;;103.13;44.97;;;;;;;7.04;89.34;100401.41;5200681;28;20030;-70
2020/12/13 00:02:55;;;;;;;97.00;44.88;;;;;;;7.04;89.87;100398.81;5202401;28;20030;-70
2020/12/13 00:05:27;;;;;;;101.18;45.28;;;;;;;7.04;89.96;100406.63;5189324;28;20101;-70
2020/12/13 00:07:58;;;;;;;100.70;45.30;;;;;;;7.03;89.66;100407.59;5205740;28;20091;-70
2020/12/13 00:10:30;;;;;;;100.60;45.17;;;;;;;7.02;89.37;100407.72;5184610;28;20030;-70
2020/12/13 00:13:01;;;;;;;94.72;43.72;;;;;;;7.02;89.58;100405.09;5206149;28;20036;-70
2020/12/13 00:15:32;;;;;;;98.50;44.90;;;;;;;7.00;89.21;100409.59;5203267;28;20018;-70
2020/12/13 00:18:03;;;;;;;99.82;45.78;;;;;;;7.01;89.38;100409.50;5204804;28;20045;-70
2020/12/13 00:20:35;;;;;;;99.90;44.53;;;;;;;7.00;89.65;100415.63;5207071;28;20026;-70
2020/12/13 00:23:06;;;;;;;92.00;43.75;;;;;;;7.00;89.89;100418.22;5210386;28;20058;-70
2020/12/13 00:25:37;;;;;;;106.55;44.50;;;;;;;7.01;90.01;100419.09;5206385;28;20049;-70
2020/12/13 00:28:08;;;;;;;97.07;43.15;;;;;;;7.02;89.93;100418.13;5208218;28;20030;-70
2020/12/13 00:30:40;;;;;;;96.78;44.53;;;;;;;7.03;89.64;100417.19;5207124;28;20031;-70
2020/12/13 00:33:11;;;;;;;86.40;42.72;;;;;;;6.97;89.30;100407.22;5190126;28;20040;-70
2020/12/13 00:35:42;;;;;;;79.72;41.15;;;;;;;7.01;89.41;100413.88;5210499;28;20030;-70
2020/12/13 00:38:13;;;;;;;87.53;40.45;;;;;;;7.00;89.47;100410.41;5207924;28;20038;-70
2020/12/13 00:40:48;;;;;;;82.85;41.95;;;;;;;6.99;89.09;100403.56;5199776;28;20407;-70
2020/12/13 00:43:19;;;;;;;78.60;40.53;;;;;;;6.96;89.70;100401.19;5203908;28;20026;-70
2020/12/13 00:45:50;;;;;;;83.13;42.45;;;;;;;7.00;89.72;100418.22;5207545;28;20398;-70
2020/12/13 00:48:22;;;;;;;74.40;40.28;;;;;;;7.03;90.01;100427.59;5206692;28;20029;-70
2020/12/13 00:50:53;;;;;;;79.70;41.20;;;;;;;7.02;89.36;100437.19;5201919;28;20780;-70
2020/12/13 00:53:24;;;;;;;83.78;39.28;;;;;;;6.99;89.66;100439.19;5208793;28;20517;-70
2020/12/13 00:55:55;;;;;;;72.40;38.20;;;;;;;7.02;89.89;100441.56;5208499;28;20085;-70
2020/12/13 00:58:27;;;;;;;86.55;41.13;;;;;;;7.03;89.50;100444.03;5204178;28;20057;-69
2020/12/13 01:00:58;;;;;;;88.57;40.63;;;;;;;6.99;89.58;100442.63;5204966;28;20491;-70
2020/12/13 01:03:29;;;;;;;75.88;40.83;;;;;;;7.03;89.61;100443.22;5202060;28;20034;-69
2020/12/13 01:06:00;;;;;;;82.82;41.78;;;;;;;7.00;89.74;100444.28;5203727;28;20029;-70
2020/12/13 01:08:32;;;;;;;82.28;38.33;;;;;;;7.00;90.29;100444.28;5207439;28;20080;-70
2020/12/13 01:11:03;;;;;;;82.45;40.10;;;;;;;6.99;89.46;100442.63;5185264;28;20507;-70
2020/12/13 01:13:34;;;;;;;82.32;40.92;;;;;;;7.01;90.00;100443.34;5205884;28;20372;-70
2020/12/13 01:16:05;;;;;;;82.03;41.75;;;;;;;6.99;89.77;100450.44;5204320;28;20096;-70
2020/12/13 01:18:39;;;;;;;85.68;41.78;;;;;;;7.00;90.24;100448.66;5209032;28;20038;-70
2020/12/13 01:21:14;;;;;;;;;;;;;;;7.09;89.43;100466.22;5205688;28;20053;-70
2020/12/13 01:23:46;;;;;;;85.47;40.58;;;;;;;7.02;90.10;100465.00;5203212;28;20849;-70
2020/12/13 01:26:19;;;;;;;94.55;42.13;;;;;;;7.04;89.58;100478.72;5208668;28;20036;-70
2020/12/13 01:28:51;;;;;;;91.05;41.88;;;;;;;7.06;90.10;100482.06;5208266;28;20025;-70
2020/12/13 01:31:23;;;;;;;82.13;41.50;;;;;;;7.01;90.54;100485.03;5191903;28;20076;-70
2020/12/13 01:33:54;;;;;;;85.13;41.55;;;;;;;7.06;89.90;100487.28;5206361;28;20030;-70
2020/12/13 01:36:25;;;;;;;80.55;41.63;;;;;;;7.04;90.05;100489.97;5208803;28;20501;-70
2020/12/13 01:38:56;;;;;;;85.85;43.25;;;;;;;7.09;90.23;100501.84;5203272;28;20036;-70
2020/12/13 01:41:29;;;;;;;82.57;42.55;;;;;;;7.10;90.01;100498.28;5208691;28;20030;-70
2020/12/13 01:44:03;;;;;;;92.53;42.50;;;;;;;7.12;90.23;100506.81;5201453;28;20136;-70
2020/12/13 01:46:37;;;;;;;80.70;41.55;;;;;;;7.13;90.57;100505.88;5207849;28;20044;-70
2020/12/13 01:49:09;;;;;;;88.20;43.22;;;;;;;7.13;90.74;100501.50;5202181;28;20034;-69
2020/12/13 01:54:33;;;;;;;84.78;41.08;;;;;;;7.16;90.35;100521.25;5202797;28;20804;-70
2020/12/13 01:57:05;;;;;;;80.47;42.00;;;;;;;7.16;91.05;100524.72;5204568;28;20057;-70
2020/12/13 01:59:37;;;;;;;91.25;42.03;;;;;;;7.16;90.55;100516.91;5190165;28;20490;-70
2020/12/13 02:02:15;;;;;;;90.47;40.67;;;;;;;7.20;90.32;100527.91;5187407;28;20044;-70
2020/12/13 02:04:49;;;;;;;84.10;41.90;;;;;;;7.16;90.24;100518.66;5201353;28;20030;-70
2020/12/13 02:07:23;;;;;;;90.60;42.67;;;;;;;7.22;90.88;100528.63;5200004;28;20088;-70
2020/12/13 02:09:54;;;;;;;87.57;43.28;;;;;;;7.21;91.07;100526.97;5194613;28;20089;-70
2020/12/13 02:12:26;;;;;;;80.53;41.05;;;;;;;7.21;90.82;100543.44;5203356;28;20113;-70
2020/12/13 02:14:57;;;;;;;78.25;40.97;;;;;;;7.24;90.33;100542.38;5200728;28;20022;-70
2020/12/13 02:17:28;;;;;;;77.03;41.13;;;;;;;7.25;90.87;100544.03;5208571;28;20031;-70
2020/12/13 02:20:11;;;;;;;89.85;41.92;;;;;;;7.25;91.09;100533.59;5203835;28;20113;-70
2020/12/13 02:22:48;;;;;;;75.47;39.93;;;;;;;7.26;90.58;100546.50;5183980;23;20054;-70
2020/12/13 02:25:22;;;;;;;78.88;39.97;;;;;;;7.27;90.58;100549.94;5178149;28;20293;-69
2020/12/13 02:27:53;;;;;;;;;;;;;;;7.31;90.21;100544.41;5190378;28;20186;-68
2020/12/13 02:30:24;;;;;;;72.67;38.23;;;;;;;7.27;90.65;100542.97;5182652;28;20004;-68
2020/12/13 02:32:55;;;;;;;77.80;39.50;;;;;;;7.26;90.67;100556.94;5183567;28;20041;-68
2020/12/13 02:35:27;;;;;;;73.30;36.70;;;;;;;7.24;89.94;100552.78;5181805;28;20121;-68
2020/12/13 02:37:58;;;;;;;70.05;37.35;;;;;;;7.24;90.46;100560.63;5180182;28;20457;-68
2020/12/13 02:40:30;;;;;;;69.38;38.47;;;;;;;7.24;90.25;100556.22;5184613;28;20553;-68
2020/12/13 02:43:01;;;;;;;69.25;37.17;;;;;;;7.23;90.39;100564.13;5185304;28;20034;-68
2020/12/13 02:45:32;;;;;;;65.47;35.97;;;;;;;7.24;90.45;100560.63;5173368;28;20035;-69
2020/12/13 02:48:03;;;;;;;70.25;36.33;;;;;;;7.24;90.45;100571.03;5183408;28;20407;-68
2020/12/13 02:50:35;;;;;;;62.75;35.70;;;;;;;7.24;90.72;100568.44;5184323;28;20023;-68
2020/12/13 02:53:06;;;;;;;61.22;34.15;;;;;;;7.21;90.72;100566.88;5181089;28;20034;-68
2020/12/13 02:55:37;;;;;;;59.35;34.03;;;;;;;7.25;91.03;100567.47;5181146;28;20058;-68
2020/12/13 02:58:09;;;;;;;62.58;34.85;;;;;;;7.24;90.90;100571.88;5182042;28;20494;-68
2020/12/13 03:00:40;;;;;;;61.80;33.70;;;;;;;7.23;90.60;100574.56;5183758;28;20066;-68
2020/12/13 03:03:11;;;;;;;50.80;31.98;;;;;;;7.24;90.25;100566.66;5182874;28;20030;-68
2020/12/13 03:05:42;;;;;;;63.42;33.65;;;;;;;7.23;90.49;100574.56;5187089;28;20034;-68
2020/12/13 03:08:14;;;;;;;58.17;32.67;;;;;;;7.24;90.64;100565.81;5182956;28;20023;-67
2020/12/13 03:10:45;;;;;;;53.15;33.53;;;;;;;7.26;90.32;100579.56;5184135;28;20030;-68
2020/12/13 03:13:16;;;;;;;52.40;33.22;;;;;;;7.23;90.30;100569.34;5177624;28;20392;-68
2020/12/13 03:15:47;;;;;;;52.58;33.10;;;;;;;7.24;89.88;100586.66;5178082;28;20042;-68
2020/12/13 03:18:19;;;;;;;54.10;33.53;;;;;;;7.23;90.53;100585.81;5184783;28;20038;-68
2020/12/13 03:20:50;;;;;;;49.67;33.10;;;;;;;7.19;90.03;100587.00;5187081;28;20488;-68
2020/12/13 03:23:21;;;;;;;54.28;32.55;;;;;;;7.21;90.76;100592.09;5183815;28;20491;-68
2020/12/13 03:25:52;;;;;;;49.33;31.02;;;;;;;7.20;90.45;100595.66;5171415;28;20058;-68
2020/12/13 03:28:24;;;;;;;48.60;32.50;;;;;;;7.21;90.61;100598.13;5179953;28;20034;-68
2020/12/13 03:30:55;;;;;;;45.80;30.08;;;;;;;7.15;89.95;100587.34;5175111;28;20030;-68
2020/12/13 03:33:26;;;;;;;47.97;32.35;;;;;;;7.20;90.48;100598.28;5169402;28;20439;-68
2020/12/13 03:35:58;;;;;;;46.42;31.42;;;;;;;7.19;89.80;100600.00;5175502;28;20031;-68
2020/12/13 03:38:29;;;;;;;47.58;31.88;;;;;;;7.15;90.00;100601.19;5181020;28;20042;-67
2020/12/13 03:41:00;;;;;;;49.97;33.00;;;;;;;7.17;90.53;100601.91;5184054;28;20054;-68
2020/12/13 03:43:31;;;;;;;49.38;31.13;;;;;;;7.19;89.84;100614.81;5181842;28;20657;-69
2020/12/13 03:46:03;;;;;;;54.47;32.33;;;;;;;7.18;90.02;100613.16;5180447;28;20408;-67
2020/12/13 03:48:34;;;;;;;52.30;30.92;;;;;;;7.17;90.14;100609.75;5190810;28;20042;-68
2020/12/13 03:51:05;;;;;;;41.50;30.15;;;;;;;7.14;90.56;100609.97;5186120;28;20465;-68
2020/12/13 03:53:36;;;;;;;47.53;30.27;;;;;;;7.18;89.71;100618.38;5186349;28;20088;-68
2020/12/13 03:56:08;;;;;;;47.55;29.23;;;;;;;7.19;90.44;100625.25;5181515;28;20037;-68
2020/12/13 03:58:39;;;;;;;49.15;31.38;;;;;;;7.17;90.06;100624.53;5176219;28;20122;-68
2020/12/13 04:01:10;;;;;;;45.97;29.25;;;;;;;7.16;90.03;100634.13;5181282;28;20034;-69
2020/12/13 04:03:41;;;;;;;48.85;29.50;;;;;;;7.17;89.97;100635.78;5183467;28;20022;-69
2020/12/13 04:06:13;;;;;;;42.65;29.58;;;;;;;7.14;90.23;100633.41;5177650;28;20030;-68
2020/12/13 04:08:44;;;;;;;42.03;29.67;;;;;;;7.15;90.02;100639.44;5186584;28;20476;-69
2020/12/13 04:11:15;;;;;;;46.13;28.88;;;;;;;7.14;89.72;100646.44;5185295;28;20023;-68
2020/12/13 04:13:47;;;;;;;46.03;28.38;;;;;;;7.10;90.05;100638.97;5179735;28;20026;-69
2020/12/13 04:16:18;;;;;;;47.13;27.60;;;;;;;7.14;90.10;100656.03;5184964;28;20038;-68
2020/12/13 04:18:49;;;;;;;41.63;27.02;;;;;;;7.13;90.13;100650.00;5186865;28;20525;-67
2020/12/13 04:21:20;;;;;;;38.28;27.05;;;;;;;7.11;90.38;100656.25;5179409;28;20097;-68
2020/12/13 04:23:53;;;;;;;35.70;26.13;;;;;;;7.11;89.84;100659.69;5178996;28;20037;-69
2020/12/13 04:26:24;;;;;;;33.08;26.13;;;;;;;7.11;89.83;100671.88;5181986;28;20411;-68
2020/12/13 04:28:55;;;;;;;35.53;25.65;;;;;;;7.11;89.64;100669.28;5188358;28;20033;-67
2020/12/13 04:31:26;;;;;;;35.75;25.10;;;;;;;7.09;90.13;100672.00;5181445;28;20050;-69
2020/12/13 04:33:58;;;;;;;35.42;24.08;;;;;;;7.05;90.23;100676.59;5180216;28;20030;-67
2020/12/13 04:36:29;;;;;;;33.70;23.73;;;;;;;7.07;90.14;100682.50;5178479;28;20057;-68
2020/12/13 04:39:00;;;;;;;32.95;25.60;;;;;;;7.07;89.78;100674.69;5182908;28;20053;-68
2020/12/13 04:41:33;;;;;;;31.42;23.35;;;;;;;7.07;89.71;100677.31;5185620;28;20030;-68
2020/12/13 04:44:05;;;;;;;36.55;25.15;;;;;;;7.05;89.31;100676.59;5177321;28;20042;-68
2020/12/13 04:46:40;;;;;;;32.00;24.13;;;;;;;7.05;89.78;100680.97;5184247;28;20092;-68
2020/12/13 04:49:13;;;;;;;28.15;22.83;;;;;;;7.03;89.83;100673.25;5186354;28;20037;-69
2020/12/13 04:51:50;;;;;;;31.17;23.15;;;;;;;7.01;89.98;100675.16;5191342;28;20149;-68
2020/12/13 04:54:23;;;;;;;29.45;23.77;;;;;;;7.00;89.41;100683.06;5180774;28;20105;-68
2020/12/13 04:56:56;;;;;;;30.98;23.55;;;;;;;7.01;89.62;100682.97;5184779;28;20027;-68
2020/12/13 04:59:28;;;;;;;32.60;25.73;;;;;;;6.98;89.18;100682.38;5186960;28;20041;-67
2020/12/13 05:02:00;;;;;;;34.40;25.67;;;;;;;6.93;89.27;100680.09;5174095;28;20037;-69
2020/12/13 05:04:35;;;;;;;31.97;24.83;;;;;;;6.97;89.14;100696.31;5180961;28;20073;-69
2020/12/13 05:07:06;;;;;;;35.47;25.70;;;;;;;6.97;89.17;100697.16;5181367;28;20045;-68
2020/12/13 05:09:39;;;;;;;34.42;25.63;;;;;;;6.98;89.37;100706.63;5177693;28;20031;-68
2020/12/13 05:12:11;;;;;;;33.75;26.15;;;;;;;6.99;89.17;100704.84;5187606;28;20052;-69
2020/12/13 05:14:47;;;;;;;37.25;27.63;;;;;;;6.99;89.28;100703.06;5180088;28;20102;-68
2020/12/13 05:17:18;;;;;;;36.70;27.05;;;;;;;6.97;89.58;100714.53;5185295;28;20034;-69
2020/12/13 05:19:49;;;;;;;35.65;27.60;;;;;;;6.95;89.19;100719.88;5187137;28;20546;-66
2020/12/13 05:22:21;;;;;;;41.20;29.80;;;;;;;6.96;89.80;100718.09;5183622;28;20105;-68
2020/12/13 05:24:53;;;;;;;38.33;28.60;;;;;;;6.92;89.53;100716.66;5188422;28;20037;-68
2020/12/13 05:27:38;;;;;;;39.28;28.58;;;;;;;6.95;89.13;100725.06;5188599;28;20037;-68
2020/12/13 05:30:10;;;;;;;38.78;30.23;;;;;;;6.91;89.35;100715.81;5186016;28;20105;-68
2020/12/13 05:32:41;;;;;;;38.22;28.13;;;;;;;6.93;89.82;100720.91;5180950;28;20539;-68
2020/12/13 05:35:12;;;;;;;39.92;27.90;;;;;;;6.89;89.22;100720.28;5185032;28;20062;-67
2020/12/13 05:37:45;;;;;;;39.47;31.27;;;;;;;6.89;89.06;100717.69;5185844;28;20085;-69
2020/12/13 05:40:16;;;;;;;40.70;28.90;;;;;;;6.87;89.62;100714.38;5185663;28;20034;-68
2020/12/13 05:42:55;;;;;;;37.00;29.83;;;;;;;6.86;89.96;100717.06;5178139;28;20038;-68
2020/12/13 05:51:59;;;;;;;41.47;29.77;;;;;;;6.85;89.36;100725.84;5182425;28;20030;-69
2020/12/13 05:54:23;;;;;;;44.25;28.95;;;;;;;6.86;89.27;100724.88;5187472;28;20126;-69
2020/12/13 05:56:57;;;;;;;40.78;29.35;;;;;;;6.85;89.23;100726.66;5189946;28;20037;-68
2020/12/13 05:59:30;;;;;;;41.20;28.92;;;;;;;6.85;89.28;100731.88;5184117;28;20410;-69
2020/12/13 06:02:02;;;;;;;37.42;30.23;;;;;;;6.86;89.56;100733.56;5179621;28;20034;-69
2020/12/13 06:04:33;;;;;;;44.78;31.45;;;;;;;6.85;88.84;100731.88;5179043;28;20022;-67
2020/12/13 06:07:05;;;;;;;41.40;30.75;;;;;;;6.85;89.12;100738.84;5178146;28;20125;-68
2020/12/13 06:09:40;;;;;;;43.83;30.58;;;;;;;6.86;89.41;100743.97;5180691;28;20105;-68
2020/12/13 06:12:12;;;;;;;38.85;29.35;;;;;;;6.86;89.80;100756.13;5184948;28;20041;-68
2020/12/13 06:14:44;;;;;;;48.05;30.77;;;;;;;6.85;89.25;100749.28;5186432;28;20033;-68
2020/12/13 06:17:15;;;;;;;47.92;32.85;;;;;;;6.83;89.56;100744.19;5178716;28;20034;-68
2020/12/13 06:19:46;;;;;;;42.22;32.17;;;;;;;6.85;89.58;100752.69;5184696;28;20030;-68
2020/12/13 06:22:21;;;;;;;51.60;34.30;;;;;;;6.84;89.15;100748.44;5179336;28;20054;-68
2020/12/13 06:24:52;;;;;;;48.72;32.53;;;;;;;6.84;89.71;100753.66;5179758;28;20026;-68
2020/12/13 06:27:23;;;;;;;46.17;32.67;;;;;;;6.83;89.51;100746.78;5184396;28;20027;-69
2020/12/13 06:29:55;;;;;;;44.45;32.92;;;;;;;6.82;89.31;100748.56;5181271;28;20030;-69
2020/12/13 06:32:38;;;;;;;50.15;32.20;;;;;;;6.84;89.24;100756.25;5183161;28;20037;-69
2020/12/13 06:35:10;;;;;;;49.50;32.30;;;;;;;6.82;89.23;100756.38;5183168;28;20034;-69
2020/12/13 06:37:41;;;;;;;42.90;33.17;;;;;;;6.79;88.96;100753.97;5184676;28;20084;-68
2020/12/13 06:40:19;;;;;;;46.67;32.67;;;;;;;6.78;89.81;100754.94;5182968;28;20395;-68
2020/12/13 06:42:51;;;;;;;46.83;33.47;;;;;;;6.80;89.41;100760.03;5181144;28;20117;-69
2020/12/13 06:45:23;;;;;;;44.65;32.10;;;;;;;6.78;88.97;100761.88;5183635;28;20072;-69
2020/12/13 06:47:55;;;;;;;42.88;31.30;;;;;;;6.76;89.16;100767.22;5184868;28;20026;-68
2020/12/13 06:50:26;;;;;;;42.80;32.08;;;;;;;6.71;89.07;100764.09;5182741;28;20051;-69
2020/12/13 06:52:57;;;;;;;42.67;30.10;;;;;;;6.71;88.88;100768.50;5183741;28;20031;-68
2020/12/13 06:55:33;;;;;;;38.90;30.73;;;;;;;6.71;89.06;100768.50;5183108;28;20042;-69
2020/12/13 06:58:04;;;;;;;41.17;30.05;;;;;;;6.65;89.10;100761.09;5183657;28;20479;-69
2020/12/13 07:00:49;;;;;;;50.40;31.10;;;;;;;6.73;89.51;100769.19;5183302;28;20026;-69
2020/12/13 07:03:26;;;;;;;46.25;30.58;;;;;;;6.71;88.62;100771.09;5183136;28;20395;-69
2020/12/13 07:06:00;;;;;;;42.08;28.55;;;;;;;6.67;89.26;100775.69;5183177;28;20054;-69
2020/12/13 07:08:32;;;;;;;45.45;28.95;;;;;;;6.67;88.54;100780.88;5182519;28;20034;-68
2020/12/13 07:11:04;;;;;;;42.13;28.58;;;;;;;6.64;89.27;100783.69;5179521;28;20034;-69
2020/12/13 07:13:36;;;;;;;40.60;25.45;;;;;;;6.64;89.21;100790.69;5184652;28;20030;-69
2020/12/13 07:16:11;;;;;;;42.97;26.70;;;;;;;6.61;89.42;100781.28;5182379;28;20045;-69
2020/12/13 07:18:46;;;;;;;40.42;25.58;;;;;;;6.61;88.74;100780.47;5181413;28;20030;-68
2020/12/13 07:21:17;;;;;;;39.90;25.42;;;;;;;6.59;88.57;100788.38;5182047;28;20052;-69
2020/12/13 07:23:49;;;;;;;42.80;23.63;;;;;;;6.58;89.19;100787.53;5182611;28;20076;-69
2020/12/13 07:26:21;;;;;;;37.80;25.95;;;;;;;6.56;89.42;100789.44;5182315;28;20026;-68
2020/12/13 07:28:54;;;;;;;36.80;25.33;;;;;;;6.57;89.29;100800.66;5182309;28;20035;-68
2020/12/13 07:31:29;;;;;;;39.00;25.25;;;;;;;6.55;89.05;100802.53;5194592;28;20037;-69
2020/12/13 07:34:01;;;;;;;36.92;24.65;;;;;;;6.55;89.20;100808.59;5182625;28;20038;-68
2020/12/13 07:36:33;;;;;;;41.83;25.00;;;;;;;6.54;88.54;100811.28;5184377;28;20036;-69
2020/12/13 07:39:07;;;;;;;36.92;23.88;;;;;;;6.52;88.95;100819.22;5183831;28;20030;-69
2020/12/13 07:41:38;;;;;;;39.75;22.17;;;;;;;6.54;88.88;100819.09;5181739;28;20027;-69
2020/12/13 07:44:11;;;;;;;41.97;22.27;;;;;;;6.51;88.50;100830.53;5182031;28;20045;-69
2020/12/13 07:46:44;;;;;;;33.00;18.70;;;;;;;6.50;88.35;100833.25;5182944;28;20027;-69
2020/12/13 07:49:17;;;;;;;27.50;16.90;;;;;;;6.47;88.85;100823.88;5181462;28;20399;-69
2020/12/13 07:51:51;;;;;;;31.67;16.05;;;;;;;6.44;88.47;100831.91;5184506;28;20534;-69
2020/12/13 07:54:29;;;;;;;;;;;;;;;6.53;87.89;100833.06;5181528;28;20034;-69
2020/12/13 07:57:14;;;;;;;26.73;15.18;;;;;;;6.44;89.01;100844.06;5182203;28;19920;-69
2020/12/13 07:59:46;;;;;;;29.08;14.68;;;;;;;6.40;88.41;100840.00;5183425;28;20038;-69
2020/12/13 08:02:18;;;;;;;25.80;13.88;;;;;;;6.38;88.63;100836.69;5179289;28;20031;-69
2020/12/13 08:04:49;;;;;;;23.48;13.30;;;;;;;6.34;88.08;100846.47;5179917;28;20444;-68
2020/12/13 08:07:21;;;;;;;27.45;12.23;;;;;;;6.35;88.68;100842.94;5181028;28;20048;-68
2020/12/13 08:10:00;;;;;;;20.58;12.27;;;;;;;6.27;88.23;100845.22;5182506;28;20483;-68
2020/12/13 08:12:36;;;;;;;22.45;11.82;;;;;;;6.31;88.59;100860.50;5181759;28;20605;-68
2020/12/13 08:15:13;;;;;;;26.23;12.00;;;;;;;6.31;88.31;100859.69;5183792;28;20034;-69
2020/12/13 08:17:58;;;;;;;18.52;11.32;;;;;;;6.28;88.28;100857.28;5182626;28;20060;-69
2020/12/13 08:20:32;;;;;;;24.23;11.27;;;;;;;6.32;87.78;100875.19;5185325;28;20043;-68
2020/12/13 08:23:06;;;;;;;28.48;13.25;;;;;;;6.28;88.17;100870.28;5197688;23;20479;-72
2020/12/13 08:25:37;;;;;;;22.15;11.10;;;;;;;6.26;88.01;100874.78;5179167;28;20067;-71
2020/12/13 08:28:12;;;;;;;19.98;10.82;;;;;;;6.32;87.52;100876.94;5181207;28;20125;-71
2020/12/13 08:30:43;;;;;;;26.30;11.98;;;;;;;6.25;87.85;100878.28;5178730;28;20029;-72
2020/12/13 08:33:17;;;;;;;22.52;11.27;;;;;;;6.30;87.83;100886.66;5180275;28;20404;-71
2020/12/13 08:35:48;;;;;;;;;;;;;;;6.38;87.63;100891.34;5184441;28;20045;-71
2020/12/13 08:38:21;;;;;;;24.27;10.30;;;;;;;6.25;87.06;100892.16;5184957;28;19921;-71
2020/12/13 08:40:52;;;;;;;22.85;10.18;;;;;;;6.20;87.13;100890.78;5180319;28;20034;-71
2020/12/13 08:43:33;;;;;;;25.35;8.90;;;;;;;6.22;86.64;100899.34;5182236;28;20394;-71
2020/12/13 08:46:04;;;;;;;19.23;10.05;;;;;;;6.19;88.02;100899.53;5181561;28;20468;-71
2020/12/13 08:48:35;;;;;;;19.38;9.38;;;;;;;6.19;87.21;100904.72;5185410;28;20077;-72
2020/12/13 08:51:09;;;;;;;20.80;8.98;;;;;;;6.15;87.29;100896.28;5182028;28;20121;-71
2020/12/13 08:53:41;;;;;;;18.55;9.32;;;;;;;6.18;87.54;100898.69;5181438;28;20439;-72
2020/12/13 08:56:15;;;;;;;25.20;9.88;;;;;;;6.18;87.44;100911.69;5183949;28;20079;-71
2020/12/13 08:58:51;;;;;;;17.02;9.63;;;;;;;6.19;87.32;100915.97;5184644;28;20031;-71
2020/12/13 09:01:25;;;;;;;15.70;8.93;;;;;;;6.19;87.72;100915.13;5182549;28;20727;-71
2020/12/13 09:03:57;;;;;;;16.25;9.05;;;;;;;6.18;87.24;100923.88;5181668;28;20084;-71
2020/12/13 09:06:33;;;;;;;19.55;9.20;;;;;;;6.17;87.11;100924.78;5185038;28;20404;-71
2020/12/13 09:09:14;;;;;;;17.40;9.02;;;;;;;6.21;87.11;100924.50;5179647;28;20026;-71
2020/12/13 09:11:45;;;;;;;19.27;9.30;;;;;;;6.18;86.40;100919.50;5180701;28;20023;-72
2020/12/13 09:14:27;;;;;;;21.30;10.25;;;;;;;6.23;87.10;100935.63;5183671;28;20044;-71
2020/12/13 09:17:00;;;;;;;16.38;8.80;;;;;;;6.17;86.97;100932.59;5183635;28;20399;-72
2020/12/13 09:19:31;;;;;;;19.83;8.50;;;;;;;6.18;86.88;100934.28;5183417;28;20046;-71
2020/12/13 09:22:03;;;;;;;19.45;9.10;;;;;;;6.20;86.63;100933.22;5185601;28;20055;-71
2020/12/13 09:24:35;;;;;;;20.33;8.95;;;;;;;6.18;86.73;100932.50;5182902;28;20023;-72
2020/12/13 09:27:11;;;;;;;16.33;8.83;;;;;;;6.21;87.31;100944.47;5181086;28;20506;-71
2020/12/13 09:29:42;;;;;;;18.90;8.82;;;;;;;6.20;86.46;100940.19;5184518;28;20340;-71
2020/12/13 09:32:15;;;;;;;16.15;8.50;;;;;;;6.23;87.49;100951.25;5183412;28;20022;-72
2020/12/13 09:34:48;;;;;;;15.93;8.13;;;;;;;6.23;86.37;100955.63;5182862;28;20030;-71
2020/12/13 09:37:19;;;;;;;24.08;10.55;;;;;;;6.16;86.43;100943.94;5185383;28;20375;-71
2020/12/13 09:39:50;;;;;;;17.77;8.20;;;;;;;6.16;86.59;100941.34;5189442;28;20037;-71
2020/12/13 09:42:22;;;;;;;15.85;8.85;;;;;;;6.16;86.35;100938.75;5191788;28;20188;-72
2020/12/13 09:44:53;;;;;;;19.17;9.00;;;;;;;6.26;86.41;100948.44;5183557;28;20440;-71
2020/12/13 09:47:24;;;;;;;14.90;7.72;;;;;;;6.27;86.83;100944.91;5182228;28;20479;-71
2020/12/13 09:49:58;;;;;;;16.80;8.32;;;;;;;6.31;87.19;100955.94;5184050;28;20019;-71
2020/12/13 09:52:34;;;;;;;19.55;8.52;;;;;;;6.31;86.64;100954.19;5179523;28;20026;-71
2020/12/13 09:55:05;;;;;;;14.57;7.45;;;;;;;6.32;86.01;100958.44;5182835;28;20134;-71
2020/12/13 09:57:37;;;;;;;18.88;8.43;;;;;;;6.36;86.15;100956.47;5184820;28;20117;-72
2020/12/13 10:00:08;;;;;;;19.30;8.18;;;;;;;6.39;86.06;100964.09;5183483;28;20058;-71
2020/12/13 10:02:40;;;;;;;18.33;8.55;;;;;;;6.40;85.85;100968.34;5181840;28;20065;-71
2020/12/13 10:05:59;;;;;;;22.50;8.43;;;;;;;6.42;85.16;100963.06;5182512;28;20081;-72
2020/12/13 10:10:56;;;;;;;17.58;7.80;;;;;;;6.43;85.33;100962.13;5184721;28;20034;-71
2020/12/13 10:13:27;;;;;;;17.55;8.07;;;;;;;6.48;86.71;100958.28;5182482;28;20638;-71
2020/12/13 10:15:58;;;;;;;14.57;7.07;;;;;;;6.53;85.40;100952.78;5186971;28;20495;-71
2020/12/13 10:18:30;;;;;;;19.05;7.78;;;;;;;6.56;85.89;100963.81;5184793;28;20032;-71
2020/12/13 10:21:01;;;;;;;15.55;7.25;;;;;;;6.57;84.97;100962.88;5181123;28;20078;-71
2020/12/13 10:23:32;;;;;;;18.30;7.15;;;;;;;6.63;84.99;100972.06;5184309;28;20058;-71
2020/12/13 10:26:04;;;;;;;13.57;7.22;;;;;;;6.62;84.77;100959.13;5183993;28;20033;-71
2020/12/13 10:28:35;;;;;;;13.68;7.22;;;;;;;6.61;85.66;100944.47;5181712;28;20023;-72
2020/12/13 10:31:10;;;;;;;12.95;6.15;;;;;;;6.66;84.86;100948.41;5184494;28;20023;-71
2020/12/13 10:33:41;;;;;;;16.33;7.70;;;;;;;6.73;85.18;100959.25;5184063;28;20030;-71
2020/12/13 10:36:13;;;;;;;14.27;5.70;;;;;;;6.75;84.13;100954.78;5181167;28;20498;-71
2020/12/13 10:38:44;;;;;;;17.13;6.50;;;;;;;6.80;84.08;100945.72;5185491;28;20066;-71
2020/12/13 10:41:16;;;;;;;13.75;6.25;;;;;;;6.88;84.25;100939.16;5184541;28;20022;-71
2020/12/13 10:43:49;;;;;;;11.65;5.93;;;;;;;6.91;84.31;100945.00;5181716;28;20053;-70
2020/12/13 10:46:20;;;;;;;16.70;6.32;;;;;;;6.98;84.00;100943.66;5184224;28;20034;-72
2020/12/13 10:48:51;;;;;;;11.80;5.82;;;;;;;7.07;83.62;100943.00;5183344;28;20030;-71
2020/12/13 10:51:22;;;;;;;15.23;7.05;;;;;;;7.20;83.92;100943.03;5180348;28;20019;-71
2020/12/13 10:53:54;;;;;;;14.38;6.55;;;;;;;7.19;83.63;100938.72;5180732;28;20412;-71
2020/12/13 10:56:25;;;;;;;14.85;6.03;;;;;;;7.17;83.09;100930.19;5182327;28;20034;-71
2020/12/13 10:58:56;;;;;;;16.80;5.78;;;;;;;7.13;82.51;100935.72;5183757;28;20479;-71
2020/12/13 11:01:27;;;;;;;14.85;5.97;;;;;;;7.12;82.75;100926.22;5183192;28;20030;-71
2020/12/13 11:03:59;;;;;;;13.52;5.88;;;;;;;7.11;81.61;100933.22;5184200;28;20080;-71
2020/12/13 11:06:31;;;;;;;14.77;5.82;;;;;;;7.08;82.18;100920.41;5183842;28;20084;-72
2020/12/13 11:09:04;;;;;;;14.10;5.97;;;;;;;7.16;82.19;100923.34;5182180;28;20384;-71
2020/12/13 11:11:35;;;;;;;10.93;5.90;;;;;;;7.17;82.54;100930.19;5181373;28;20029;-71
2020/12/13 11:14:06;;;;;;;17.23;6.22;;;;;;;7.24;80.72;100920.19;5179684;28;20030;-70
2020/12/13 11:16:37;;;;;;;13.75;6.50;;;;;;;7.26;82.74;100923.50;5181607;28;20025;-70
2020/12/13 11:19:09;;;;;;;12.32;5.55;;;;;;;7.26;81.40;100915.69;5178386;28;20058;-70
2020/12/13 11:21:45;;;;;;;16.60;6.18;;;;;;;7.26;81.29;100921.72;5182633;28;20023;-71
2020/12/13 11:24:16;;;;;;;12.95;5.40;;;;;;;7.31;80.96;100924.00;5182872;28;20030;-70
2020/12/13 11:26:48;;;;;;;13.77;6.68;;;;;;;7.34;81.52;100928.19;5181577;28;20092;-70
2020/12/13 11:29:20;;;;;;;12.32;5.85;;;;;;;7.32;81.17;100931.75;5182677;28;20102;-70
2020/12/13 11:31:52;;;;;;;11.30;5.80;;;;;;;7.33;81.13;100927.34;5173840;28;20400;-70
2020/12/13 11:34:23;;;;;;;10.77;5.93;;;;;;;7.38;81.09;100920.03;5182127;28;20097;-70
2020/12/13 11:36:54;;;;;;;14.60;6.95;;;;;;;7.38;80.92;100914.00;5184798;28;20031;-70
2020/12/13 11:39:25;;;;;;;12.20;6.43;;;;;;;7.36;81.08;100913.28;5181919;28;20070;-70
2020/12/13 11:41:58;;;;;;;14.23;7.57;;;;;;;7.40;81.39;100912.13;5182258;28;20027;-70
2020/12/13 11:44:30;;;;;;;12.90;6.10;;;;;;;7.45;81.46;100921.28;5179496;28;20132;-70
2020/12/13 11:47:02;;;;;;;13.73;6.32;;;;;;;7.45;81.33;100923.06;5181891;28;20476;-69
2020/12/13 11:49:33;;;;;;;16.83;7.00;;;;;;;7.47;80.68;100916.81;5182034;28;20117;-70
2020/12/13 11:52:04;;;;;;;15.23;6.75;;;;;;;7.45;80.66;100908.25;5185834;28;20027;-70
2020/12/13 11:54:36;;;;;;;15.95;7.35;;;;;;;7.50;81.34;100911.38;5182368;28;20684;-70